createdAt,value
2018-03-23T00:00:53.529Z,16.10
2018-03-23T00:03:21.042Z,17.15
2018-03-23T00:05:48.105Z,16.10
2018-03-23T00:08:15.854Z,16.83
2018-03-23T00:10:42.877Z,15.63
2018-03-23T00:13:10.030Z,16.85
2018-03-23T00:15:37.118Z,16.83
2018-03-23T00:18:04.890Z,17.33
2018-03-23T00:20:31.874Z,17.02
2018-03-23T00:22:58.902Z,13.73
2018-03-23T00:25:26.718Z,14.23
2018-03-23T00:27:53.700Z,17.17
2018-03-23T00:30:20.700Z,17.62
2018-03-23T00:32:47.705Z,18.70
2018-03-23T00:35:14.698Z,17.35
2018-03-23T00:37:41.813Z,17.02
2018-03-23T00:40:08.828Z,16.02
2018-03-23T00:42:36.609Z,18.40
2018-03-23T00:45:03.675Z,15.95
2018-03-23T00:47:30.677Z,18.35
2018-03-23T00:49:57.689Z,19.98
2018-03-23T00:52:24.970Z,21.98
2018-03-23T00:54:52.746Z,19.75
2018-03-23T00:57:25.438Z,20.08
2018-03-23T00:59:52.452Z,20.08
2018-03-23T01:02:19.478Z,20.50
2018-03-23T01:04:47.406Z,19.12
2018-03-23T01:07:15.366Z,19.10
2018-03-23T01:09:43.194Z,22.27
2018-03-23T01:12:10.407Z,20.85
2018-03-23T01:14:37.410Z,22.13
2018-03-23T01:17:04.809Z,21.25
2018-03-23T01:19:32.217Z,18.70
2018-03-23T01:22:00.025Z,21.85
2018-03-23T01:24:27.017Z,20.83
2018-03-23T01:26:54.049Z,21.25
2018-03-23T01:29:21.337Z,21.15
2018-03-23T01:31:48.437Z,22.10
2018-03-23T01:34:15.477Z,22.52
2018-03-23T01:36:42.496Z,19.95
2018-03-23T01:39:09.481Z,21.60
2018-03-23T01:41:36.509Z,19.02
2018-03-23T01:44:03.563Z,19.35
2018-03-23T01:46:31.274Z,18.08
2018-03-23T01:48:58.307Z,19.83
2018-03-23T01:51:25.290Z,18.48
2018-03-23T01:53:53.077Z,17.25
2018-03-23T01:56:20.084Z,20.88
2018-03-23T01:58:47.076Z,17.85
2018-03-23T02:01:14.782Z,17.70
2018-03-23T02:03:41.908Z,16.37
2018-03-23T02:06:08.916Z,15.45
2018-03-23T02:08:36.654Z,16.62
2018-03-23T02:11:04.433Z,15.73
2018-03-23T02:13:32.221Z,16.23
2018-03-23T02:15:59.270Z,14.30
2018-03-23T02:18:26.315Z,15.43
2018-03-23T02:20:53.330Z,16.25
2018-03-23T02:23:20.694Z,16.75
2018-03-23T02:25:47.786Z,17.15
2018-03-23T02:28:14.766Z,16.48
2018-03-23T02:30:41.806Z,15.18
2018-03-23T02:33:09.203Z,15.57
2018-03-23T02:35:36.346Z,15.73
2018-03-23T02:38:04.116Z,16.50
2018-03-23T02:40:31.867Z,15.63
2018-03-23T02:42:59.669Z,17.10
2018-03-23T02:45:27.066Z,14.35
2018-03-23T02:47:54.106Z,14.00
2018-03-23T02:50:21.155Z,14.85
2018-03-23T02:52:48.313Z,16.17
2018-03-23T02:55:15.618Z,17.12
2018-03-23T02:57:43.448Z,16.48
2018-03-23T03:00:11.494Z,15.90
2018-03-23T03:02:38.601Z,15.65
2018-03-23T03:05:05.609Z,16.30
2018-03-23T03:07:32.976Z,14.40
2018-03-23T03:10:00.002Z,16.33
2018-03-23T03:12:27.084Z,14.55
2018-03-23T03:14:54.101Z,14.00
2018-03-23T03:17:21.342Z,15.60
2018-03-23T03:19:48.409Z,15.88
2018-03-23T03:22:15.518Z,16.20
2018-03-23T03:24:42.525Z,16.12
2018-03-23T03:27:09.529Z,16.00
2018-03-23T03:29:36.526Z,15.27
2018-03-23T03:32:03.590Z,15.32
2018-03-23T03:34:30.601Z,15.98
2018-03-23T03:36:57.613Z,15.75
2018-03-23T03:39:24.617Z,15.68
2018-03-23T03:41:51.698Z,14.27
2018-03-23T03:44:18.717Z,13.30
2018-03-23T03:46:45.705Z,16.50
2018-03-23T03:49:12.861Z,13.85
2018-03-23T03:51:40.058Z,14.45
2018-03-23T03:54:07.153Z,15.88
2018-03-23T03:56:34.130Z,16.65
2018-03-23T03:59:01.910Z,14.50
2018-03-23T04:01:36.613Z,14.15
2018-03-23T04:04:03.807Z,14.15
2018-03-23T04:06:30.796Z,18.25
2018-03-23T04:08:57.833Z,14.65
2018-03-23T04:11:24.812Z,17.05
2018-03-23T04:13:52.599Z,15.57
2018-03-23T04:16:19.609Z,15.73
2018-03-23T04:18:46.599Z,14.90
2018-03-23T04:21:13.590Z,14.80
2018-03-23T04:23:40.733Z,14.87
2018-03-23T04:26:07.762Z,13.25
2018-03-23T04:28:34.725Z,17.35
2018-03-23T04:31:01.751Z,14.40
2018-03-23T04:33:28.770Z,16.00
2018-03-23T04:35:55.771Z,15.23
2018-03-23T04:38:22.809Z,16.45
2018-03-23T04:40:49.806Z,17.70
2018-03-23T04:43:17.682Z,17.70
2018-03-23T04:45:44.786Z,17.92
2018-03-23T04:48:11.790Z,18.08
2018-03-23T04:50:38.777Z,17.05
2018-03-23T04:53:05.897Z,17.65
2018-03-23T04:55:33.093Z,15.32
2018-03-23T04:58:00.183Z,15.50
2018-03-23T05:00:27.158Z,16.37
2018-03-23T05:02:54.285Z,17.27
2018-03-23T05:05:21.332Z,18.33
2018-03-23T05:07:48.375Z,16.25
2018-03-23T05:10:15.490Z,17.85
2018-03-23T05:12:42.584Z,16.17
2018-03-23T05:15:09.606Z,17.92
2018-03-23T05:17:36.880Z,17.08
2018-03-23T05:20:04.734Z,17.67
2018-03-23T05:22:31.801Z,17.37
2018-03-23T05:24:58.796Z,18.15
2018-03-23T05:27:25.788Z,18.15
2018-03-23T05:29:52.794Z,17.65
2018-03-23T05:32:19.870Z,20.10
2018-03-23T05:34:46.866Z,17.85
2018-03-23T05:37:14.189Z,18.00
2018-03-23T05:39:42.441Z,18.52
2018-03-23T05:42:10.298Z,19.10
2018-03-23T05:44:37.481Z,18.58
2018-03-23T05:47:04.650Z,19.15
2018-03-23T05:49:31.758Z,19.90
2018-03-23T05:51:59.042Z,20.30
2018-03-23T05:54:28.257Z,19.27
2018-03-23T05:56:55.473Z,20.08
2018-03-23T05:59:22.515Z,19.90
2018-03-23T06:01:49.904Z,19.65
2018-03-23T06:04:16.922Z,21.08
2018-03-23T06:06:44.230Z,21.55
2018-03-23T06:09:11.384Z,16.92
2018-03-23T06:11:38.566Z,18.37
2018-03-23T06:14:05.778Z,18.10
2018-03-23T06:16:32.946Z,19.17
2018-03-23T06:19:00.078Z,19.60
2018-03-23T06:21:27.966Z,16.12
2018-03-23T06:23:55.333Z,18.50
2018-03-23T06:26:23.209Z,17.40
2018-03-23T06:28:50.370Z,18.95
2018-03-23T06:31:18.369Z,17.65
2018-03-23T06:33:46.178Z,19.30
2018-03-23T06:36:13.130Z,18.62
2018-03-23T06:38:40.349Z,17.85
2018-03-23T06:41:07.427Z,18.62
2018-03-23T06:43:34.682Z,18.15
2018-03-23T06:46:01.883Z,19.15
2018-03-23T06:48:28.959Z,18.52
2018-03-23T06:50:56.006Z,16.37
2018-03-23T06:53:23.214Z,16.98
2018-03-23T06:55:50.421Z,18.92
2018-03-23T06:58:17.593Z,19.08
2018-03-23T07:00:52.614Z,18.92
2018-03-23T07:03:19.953Z,17.80
2018-03-23T07:05:47.130Z,18.77
2018-03-23T07:08:14.202Z,18.73
2018-03-23T07:10:41.401Z,19.95
2018-03-23T07:13:08.578Z,17.70
2018-03-23T07:15:35.646Z,19.35
2018-03-23T07:18:02.854Z,18.08
2018-03-23T07:20:30.713Z,18.10
2018-03-23T07:22:58.669Z,18.08
2018-03-23T07:25:26.038Z,19.55
2018-03-23T07:27:53.113Z,19.23
2018-03-23T07:30:20.534Z,18.45
2018-03-23T07:32:48.611Z,17.45
2018-03-23T07:35:15.862Z,19.45
2018-03-23T07:37:43.282Z,17.17
2018-03-23T07:40:10.521Z,19.12
2018-03-23T07:42:37.857Z,17.67
2018-03-23T07:45:05.026Z,16.42
2018-03-23T07:47:32.813Z,15.48
2018-03-23T07:50:00.093Z,14.60
2018-03-23T07:52:27.174Z,17.45
2018-03-23T07:54:54.313Z,15.57
2018-03-23T07:57:21.389Z,16.10
2018-03-23T07:59:48.860Z,17.25
2018-03-23T08:02:16.149Z,16.10
2018-03-23T08:04:43.330Z,16.65
2018-03-23T08:07:10.406Z,17.40
2018-03-23T08:09:37.374Z,16.83
2018-03-23T08:12:04.697Z,16.87
2018-03-23T08:14:31.994Z,18.40
2018-03-23T08:16:59.017Z,16.83
2018-03-23T08:19:26.242Z,17.80
2018-03-23T08:21:53.629Z,17.37
2018-03-23T08:24:20.681Z,17.05
2018-03-23T08:26:47.901Z,16.25
2018-03-23T08:29:15.022Z,17.02
2018-03-23T08:31:42.278Z,17.42
2018-03-23T08:34:09.326Z,18.55
2018-03-23T08:36:37.826Z,15.00
2018-03-23T08:39:05.169Z,16.52
2018-03-23T08:41:32.230Z,17.70
2018-03-23T08:43:59.873Z,16.67
2018-03-23T08:46:27.108Z,17.55
2018-03-23T08:48:54.166Z,16.42
2018-03-23T08:51:21.370Z,17.27
2018-03-23T08:53:48.394Z,15.90
2018-03-23T08:56:15.621Z,18.10
2018-03-23T08:58:43.456Z,18.33
2018-03-23T09:01:11.430Z,17.17
2018-03-23T09:03:38.617Z,17.80
2018-03-23T09:06:06.557Z,16.73
2018-03-23T09:08:33.678Z,17.00
2018-03-23T09:11:00.773Z,17.37
2018-03-23T09:13:28.005Z,17.50
2018-03-23T09:15:55.194Z,18.17
2018-03-23T09:18:22.220Z,16.40
2018-03-23T09:20:49.409Z,17.23
2018-03-23T09:23:16.663Z,16.77
2018-03-23T09:25:43.854Z,16.70
2018-03-23T09:28:14.470Z,17.25
2018-03-23T09:30:42.425Z,15.88
2018-03-23T09:33:09.773Z,16.65
2018-03-23T09:35:36.982Z,17.02
2018-03-23T09:38:03.987Z,17.35
2018-03-23T09:40:31.836Z,17.10
2018-03-23T09:42:59.737Z,16.67
2018-03-23T09:45:26.940Z,17.42
2018-03-23T09:47:54.153Z,16.50
2018-03-23T09:50:21.243Z,19.30
2018-03-23T09:52:48.654Z,16.98
2018-03-23T09:55:15.662Z,17.33
2018-03-23T09:57:43.472Z,18.48
2018-03-23T10:00:10.756Z,18.50
2018-03-23T10:02:38.018Z,16.90
2018-03-23T10:05:06.003Z,16.25
2018-03-23T10:07:33.218Z,15.98
2018-03-23T10:10:00.297Z,16.10
2018-03-23T10:12:27.529Z,16.37
2018-03-23T10:14:54.685Z,16.80
2018-03-23T10:17:22.587Z,17.73
2018-03-23T10:19:51.361Z,15.43
2018-03-23T10:22:18.582Z,14.85
2018-03-23T10:24:45.814Z,15.27
2018-03-23T10:27:12.862Z,14.07
2018-03-23T10:29:41.795Z,16.17
2018-03-23T10:32:09.083Z,13.97
2018-03-23T10:34:36.285Z,14.70
2018-03-23T10:37:04.125Z,14.77
2018-03-23T10:39:31.295Z,15.20
2018-03-23T10:41:58.390Z,15.30
2018-03-23T10:44:25.502Z,14.53
2018-03-23T10:46:52.612Z,14.10
2018-03-23T10:49:19.690Z,14.47
2018-03-23T10:51:48.076Z,13.53
2018-03-23T10:54:17.201Z,13.17
2018-03-23T10:56:45.986Z,14.70
2018-03-23T10:59:13.857Z,13.07
2018-03-23T11:01:47.770Z,14.03
2018-03-23T11:04:15.647Z,14.23
2018-03-23T11:06:42.874Z,12.03
2018-03-23T11:09:10.241Z,12.77
2018-03-23T11:11:38.047Z,13.27
2018-03-23T11:14:05.147Z,12.07
2018-03-23T11:16:32.159Z,13.57
2018-03-23T11:18:59.292Z,12.17
2018-03-23T11:21:26.537Z,13.03
2018-03-23T11:23:53.740Z,12.90
2018-03-23T11:26:21.268Z,13.50
2018-03-23T11:28:48.550Z,12.97
2018-03-23T11:31:15.643Z,13.47
2018-03-23T11:33:43.754Z,13.97
2018-03-23T11:36:10.955Z,14.30
2018-03-23T11:38:38.218Z,14.00
2018-03-23T11:41:05.371Z,14.90
2018-03-23T11:43:32.738Z,14.17
2018-03-23T11:45:59.750Z,14.50
2018-03-23T11:48:27.758Z,14.27
2018-03-23T11:50:55.068Z,15.13
2018-03-23T11:53:23.213Z,14.17
2018-03-23T11:55:50.294Z,14.73
2018-03-23T11:58:18.262Z,14.60
2018-03-23T12:00:45.345Z,13.63
2018-03-23T12:03:12.442Z,14.13
2018-03-23T12:05:39.440Z,15.53
2018-03-23T12:08:06.662Z,14.00
2018-03-23T12:10:33.913Z,14.70
2018-03-23T12:13:01.258Z,14.30
2018-03-23T12:15:28.382Z,13.60
2018-03-23T12:17:55.422Z,13.10
2018-03-23T12:20:22.469Z,13.93
2018-03-23T12:22:49.521Z,12.70
2018-03-23T12:25:16.521Z,14.30
2018-03-23T12:27:44.314Z,14.27
2018-03-23T12:30:11.357Z,12.90
2018-03-23T12:32:38.673Z,13.63
2018-03-23T12:35:06.549Z,14.37
2018-03-23T12:37:33.557Z,15.50
2018-03-23T12:40:00.842Z,12.90
2018-03-23T12:42:27.969Z,13.27
2018-03-23T12:44:54.974Z,12.20
2018-03-23T12:47:21.997Z,13.57
2018-03-23T12:49:49.001Z,12.60
2018-03-23T12:52:16.011Z,13.17
2018-03-23T12:54:43.197Z,13.60
2018-03-23T12:57:10.421Z,11.80
2018-03-23T12:59:37.437Z,13.87
2018-03-23T13:02:04.770Z,14.50
2018-03-23T13:04:31.994Z,13.50
2018-03-23T13:06:59.063Z,13.00
2018-03-23T13:09:27.110Z,13.13
2018-03-23T13:11:54.176Z,13.53
2018-03-23T13:14:21.170Z,13.67
2018-03-23T13:19:22.751Z,12.57
2018-03-23T13:21:50.039Z,13.07
2018-03-23T13:24:17.136Z,14.00
2018-03-23T13:26:44.306Z,12.73
2018-03-23T13:29:12.342Z,14.60
2018-03-23T13:31:39.397Z,14.90
2018-03-23T13:34:06.506Z,14.37
2018-03-23T13:36:33.697Z,14.60
2018-03-23T13:39:01.067Z,11.37
2018-03-23T13:41:28.134Z,13.00
2018-03-23T13:43:55.397Z,13.67
2018-03-23T13:46:22.594Z,13.63
2018-03-23T13:48:50.331Z,12.60
2018-03-23T13:51:17.370Z,13.20
2018-03-23T13:53:44.669Z,14.20
2018-03-23T13:56:11.979Z,14.73
2018-03-23T13:58:45.134Z,15.33
2018-03-23T14:01:18.461Z,13.40
2018-03-23T14:03:46.356Z,14.17
2018-03-23T14:06:14.286Z,14.67
2018-03-23T14:08:41.379Z,15.00
2018-03-23T14:11:08.597Z,15.10
2018-03-23T14:13:35.819Z,14.80
2018-03-23T14:16:02.974Z,14.90
2018-03-23T14:18:30.137Z,17.33
2018-03-23T14:20:57.909Z,15.30
2018-03-23T14:23:25.753Z,14.93
2018-03-23T14:25:52.819Z,13.37
2018-03-23T14:28:20.961Z,14.83
2018-03-23T14:30:49.096Z,13.43
2018-03-23T14:33:16.326Z,14.93
2018-03-23T14:35:43.564Z,13.57
2018-03-23T14:38:11.389Z,13.83
2018-03-23T14:40:38.551Z,14.50
2018-03-23T14:43:05.601Z,14.83
2018-03-23T14:45:33.609Z,13.43
2018-03-23T14:48:00.830Z,13.10
2018-03-23T14:50:27.980Z,15.70
2018-03-23T14:52:55.994Z,14.27
2018-03-23T14:55:23.205Z,14.43
2018-03-23T14:57:50.390Z,15.83
2018-03-23T15:00:18.198Z,13.43
2018-03-23T15:02:46.078Z,15.40
2018-03-23T15:05:13.305Z,15.90
2018-03-23T15:07:40.317Z,14.77
2018-03-23T15:10:07.321Z,14.93
2018-03-23T15:12:34.401Z,14.03
2018-03-23T15:15:01.665Z,15.10
2018-03-23T15:17:29.155Z,14.70
2018-03-23T15:19:56.224Z,14.37
2018-03-23T15:22:23.277Z,17.93
2018-03-23T15:24:50.498Z,17.30
2018-03-23T15:27:17.760Z,13.73
2018-03-23T15:29:44.841Z,14.17
2018-03-23T15:32:13.050Z,14.30
2018-03-23T15:34:40.283Z,12.27
2018-03-23T15:37:08.239Z,13.97
2018-03-23T15:39:35.454Z,13.83
2018-03-23T15:42:02.953Z,13.47
2018-03-23T15:44:30.125Z,12.57
2018-03-23T15:46:57.915Z,13.53
2018-03-23T15:49:25.865Z,12.97
2018-03-23T15:51:53.086Z,14.03
2018-03-23T15:54:21.322Z,13.97
2018-03-23T15:56:48.401Z,13.70
2018-03-23T15:59:15.561Z,14.00
2018-03-23T16:01:42.797Z,14.77
2018-03-23T16:04:10.030Z,10.97
2018-03-23T16:06:37.142Z,10.20
2018-03-23T16:09:05.206Z,5.23
2018-03-23T16:11:32.537Z,4.50
2018-03-23T16:13:59.854Z,3.17
2018-03-23T16:16:27.853Z,1.50
2018-03-23T16:18:54.876Z,1.43
2018-03-23T16:21:21.896Z,1.30
2018-03-23T16:23:49.877Z,1.20
2018-03-23T16:26:17.073Z,1.70
2018-03-23T16:28:44.129Z,2.07
2018-03-23T16:31:11.274Z,1.50
2018-03-23T16:33:39.188Z,1.40
2018-03-23T16:36:06.221Z,1.57
2018-03-23T16:38:33.451Z,1.70
2018-03-23T16:41:00.657Z,1.20
2018-03-23T16:43:28.586Z,1.50
2018-03-23T16:45:55.585Z,1.50
2018-03-23T16:48:22.814Z,1.40
2018-03-23T16:50:50.141Z,1.30
2018-03-23T16:53:17.297Z,1.43
2018-03-23T16:55:44.597Z,1.47
2018-03-23T16:58:11.898Z,2.27
2018-03-23T17:00:38.897Z,1.30
2018-03-23T17:03:05.976Z,1.77
2018-03-23T17:05:33.231Z,1.13
2018-03-23T17:08:00.361Z,1.47
2018-03-23T17:10:27.564Z,1.50
2018-03-23T17:12:55.041Z,1.70
2018-03-23T17:15:23.011Z,1.00
2018-03-23T17:17:50.902Z,2.00
2018-03-23T17:20:18.390Z,1.60
2018-03-23T17:22:45.671Z,1.63
2018-03-23T17:25:12.936Z,1.70
2018-03-23T17:27:40.093Z,2.20
2018-03-23T17:30:07.364Z,1.70
2018-03-23T17:32:36.498Z,1.77
2018-03-23T17:35:03.787Z,1.77
2018-03-23T17:37:31.853Z,1.97
2018-03-23T17:39:59.676Z,1.73
2018-03-23T17:42:27.574Z,1.58
2018-03-23T17:44:54.614Z,2.17
2018-03-23T17:47:21.822Z,1.70
2018-03-23T17:49:48.869Z,1.47
2018-03-23T17:52:16.204Z,1.67
2018-03-23T17:54:43.421Z,2.60
2018-03-23T17:57:10.594Z,2.20
2018-03-23T17:59:37.768Z,1.30
2018-03-23T18:02:04.946Z,1.75
2018-03-23T18:04:32.600Z,2.35
2018-03-23T18:06:59.690Z,2.00
2018-03-23T18:09:27.731Z,2.60
2018-03-23T18:11:55.514Z,2.97
2018-03-23T18:14:22.582Z,2.20
2018-03-23T18:16:49.633Z,1.65
2018-03-23T18:19:17.524Z,2.10
2018-03-23T18:21:44.546Z,2.00
2018-03-23T18:24:11.966Z,1.90
2018-03-23T18:26:39.093Z,1.73
2018-03-23T18:29:06.358Z,1.85
2018-03-23T18:31:33.510Z,3.60
2018-03-23T18:34:01.694Z,1.75
2018-03-23T18:36:28.830Z,2.37
2018-03-23T18:38:56.654Z,1.90
2018-03-23T18:41:23.796Z,2.55
2018-03-23T18:43:51.782Z,2.97
2018-03-23T18:46:18.812Z,2.35
2018-03-23T18:48:45.846Z,2.25
2018-03-23T18:51:13.012Z,2.70
2018-03-23T18:53:40.178Z,2.70
2018-03-23T18:56:07.234Z,3.40
2018-03-23T18:58:34.534Z,4.47
2018-03-23T19:01:01.944Z,7.60
2018-03-23T19:03:29.094Z,9.43
2018-03-23T19:05:56.251Z,11.60
2018-03-23T19:08:23.341Z,11.25
2018-03-23T19:10:50.470Z,13.40
2018-03-23T19:13:17.763Z,11.45
2018-03-23T19:15:45.593Z,11.32
2018-03-23T19:18:13.530Z,11.50
2018-03-23T19:20:40.747Z,10.85
2018-03-23T19:23:07.830Z,9.43
2018-03-23T19:25:34.870Z,9.32
2018-03-23T19:28:02.105Z,9.52
2018-03-23T19:30:29.934Z,7.82
2018-03-23T19:32:57.324Z,7.75
2018-03-23T19:35:24.510Z,9.35
2018-03-23T19:37:52.502Z,8.60
2018-03-23T19:40:19.626Z,9.55
2018-03-23T19:42:46.866Z,9.13
2018-03-23T19:45:14.092Z,9.82
2018-03-23T19:47:41.445Z,8.75
2018-03-23T19:50:09.375Z,7.87
2018-03-23T19:52:36.938Z,7.70
2018-03-23T19:55:04.897Z,8.10
2018-03-23T19:57:32.040Z,7.78
2018-03-23T20:00:00.111Z,7.62
2018-03-23T20:02:27.322Z,7.37
2018-03-23T20:04:54.977Z,7.62
2018-03-23T20:07:22.950Z,5.97
2018-03-23T20:09:50.346Z,7.00
2018-03-23T20:12:17.645Z,6.00
2018-03-23T20:14:45.560Z,4.75
2018-03-23T20:17:12.855Z,4.93
2018-03-23T20:19:40.035Z,4.20
2018-03-23T20:22:07.339Z,6.03
2018-03-23T20:24:34.366Z,7.50
2018-03-23T20:27:07.487Z,8.40
2018-03-23T20:29:35.858Z,11.45
2018-03-23T20:32:09.978Z,12.35
2018-03-23T20:34:37.046Z,10.98
2018-03-23T20:37:04.214Z,9.90
2018-03-23T20:39:31.537Z,8.43
2018-03-23T20:41:58.965Z,9.80
2018-03-23T20:44:26.912Z,12.43
2018-03-23T20:46:55.314Z,10.75
2018-03-23T20:49:23.059Z,13.60
2018-03-23T20:51:50.202Z,12.45
2018-03-23T20:54:17.358Z,12.40
2018-03-23T20:56:44.607Z,13.40
2018-03-23T20:59:11.875Z,12.30
2018-03-23T21:01:39.133Z,12.37
2018-03-23T21:04:06.677Z,11.60
2018-03-23T21:06:33.874Z,10.95
2018-03-23T21:09:00.995Z,13.20
2018-03-23T21:11:28.497Z,10.15
2018-03-23T21:13:55.842Z,10.45
2018-03-23T21:16:23.095Z,9.50
2018-03-23T21:18:50.931Z,8.40
2018-03-23T21:21:18.141Z,8.45
2018-03-23T21:23:45.381Z,6.37
2018-03-23T21:26:13.157Z,7.60
2018-03-23T21:28:40.321Z,7.93
2018-03-23T21:31:07.656Z,9.18
2018-03-23T21:33:34.911Z,8.48
2018-03-23T21:36:02.060Z,8.48
2018-03-23T21:38:29.397Z,6.28
2018-03-23T21:40:56.488Z,7.12
2018-03-23T21:43:23.624Z,6.85
2018-03-23T21:45:51.042Z,6.12
2018-03-23T21:48:18.300Z,8.07
2018-03-23T21:50:45.651Z,11.20
2018-03-23T21:53:13.042Z,11.95
2018-03-23T21:55:40.217Z,11.25
2018-03-23T21:58:07.342Z,11.02
2018-03-23T22:00:34.727Z,12.32
2018-03-23T22:03:02.255Z,12.13
2018-03-23T22:05:29.512Z,13.00
2018-03-23T22:07:57.034Z,11.38
2018-03-23T22:10:24.311Z,11.10
2018-03-23T22:12:51.650Z,9.05
2018-03-23T22:15:18.893Z,8.05
2018-03-23T22:17:46.776Z,9.15
2018-03-23T22:20:14.738Z,6.47
2018-03-23T22:22:41.806Z,6.72
2018-03-23T22:25:09.113Z,5.93
2018-03-23T22:27:36.350Z,5.85
2018-03-23T22:30:03.698Z,6.37
2018-03-23T22:32:31.027Z,8.45
2018-03-23T22:34:58.118Z,9.30
2018-03-23T22:37:25.895Z,11.27
2018-03-23T22:39:53.220Z,10.75
2018-03-23T22:42:20.433Z,10.50
2018-03-23T22:44:47.512Z,9.68
2018-03-23T22:47:15.092Z,10.77
2018-03-23T22:49:42.204Z,10.05
2018-03-23T22:52:09.365Z,9.70
2018-03-23T22:54:36.625Z,9.10
2018-03-23T22:57:04.198Z,8.75
2018-03-23T22:59:31.478Z,6.25
2018-03-23T23:01:58.777Z,6.22
2018-03-23T23:04:26.818Z,4.62
2018-03-23T23:06:53.985Z,5.35
2018-03-23T23:09:21.262Z,5.60
2018-03-23T23:11:48.290Z,4.50
2018-03-23T23:14:15.361Z,5.37
2018-03-23T23:16:43.397Z,6.72
2018-03-23T23:19:10.672Z,5.30
2018-03-23T23:21:38.574Z,5.90
2018-03-23T23:24:05.817Z,5.37
2018-03-23T23:26:33.004Z,5.10
2018-03-23T23:29:00.343Z,5.68
2018-03-23T23:31:27.516Z,6.18
2018-03-23T23:33:54.962Z,6.50
2018-03-23T23:36:22.795Z,5.40
2018-03-23T23:38:49.986Z,5.80
2018-03-23T23:41:17.038Z,6.15
2018-03-23T23:43:44.421Z,5.95
2018-03-23T23:46:11.635Z,5.47
2018-03-23T23:48:38.656Z,6.75
2018-03-23T23:51:05.669Z,5.60
2018-03-23T23:53:33.143Z,5.60
2018-03-23T23:56:01.034Z,5.65
2018-03-23T23:58:28.054Z,5.68
